createdAt,value
2016-09-02T00:00:05.454Z,1009.23
2016-09-02T00:01:05.479Z,1009.27
2016-09-02T00:02:06.992Z,1009.27
2016-09-02T00:03:05.531Z,1009.26
2016-09-02T00:04:05.561Z,1009.28
2016-09-02T00:05:05.583Z,1009.27
2016-09-02T00:06:05.609Z,1009.27
2016-09-02T00:07:05.635Z,1009.29
2016-09-02T00:08:05.661Z,1009.27
2016-09-02T00:09:05.687Z,1009.26
2016-09-02T00:10:05.715Z,1009.27
2016-09-02T00:11:05.738Z,1009.3
2016-09-02T00:12:05.766Z,1009.3
2016-09-02T00:13:05.790Z,1009.29
2016-09-02T00:14:05.816Z,1009.27
2016-09-02T00:15:05.841Z,1009.27
2016-09-02T00:16:05.867Z,1009.22
2016-09-02T00:17:05.894Z,1009.18
2016-09-02T00:18:05.919Z,1009.15
2016-09-02T00:19:05.947Z,1009.14
2016-09-02T00:20:05.972Z,1009.13
2016-09-02T00:21:06.001Z,1009.12
2016-09-02T00:22:06.023Z,1009.12
2016-09-02T00:23:06.049Z,1009.15
2016-09-02T00:24:06.075Z,1009.13
2016-09-02T00:25:06.101Z,1009.15
2016-09-02T00:26:06.130Z,1009.2
2016-09-02T00:27:06.152Z,1009.18
2016-09-02T00:28:06.178Z,1009.2
2016-09-02T00:29:06.204Z,1009.18
2016-09-02T00:30:06.229Z,1009.22
2016-09-02T00:31:06.271Z,1009.2
2016-09-02T00:32:06.283Z,1009.17
2016-09-02T00:33:06.306Z,1009.12
2016-09-02T00:34:06.332Z,1009.15
2016-09-02T00:35:06.476Z,1009.13
2016-09-02T00:36:06.384Z,1009.12
2016-09-02T00:37:06.409Z,1009.11
2016-09-02T00:38:06.436Z,1009.11
2016-09-02T00:39:06.459Z,1009.11
2016-09-02T00:40:06.485Z,1009.12
2016-09-02T00:41:06.509Z,1009.14
2016-09-02T00:42:06.538Z,1009.15
2016-09-02T00:43:06.561Z,1009.15
2016-09-02T00:44:06.587Z,1009.14
2016-09-02T00:45:06.703Z,1009.09
2016-09-02T00:46:06.639Z,1009.11
2016-09-02T00:47:06.665Z,1009.05
2016-09-02T00:48:06.688Z,1009.08
2016-09-02T00:49:06.715Z,1009.04
2016-09-02T00:50:06.753Z,1009.05
2016-09-02T00:51:06.764Z,1009.05
2016-09-02T00:52:06.791Z,1009.04
2016-09-02T00:53:06.817Z,1009.05
2016-09-02T00:54:06.846Z,1009.01
2016-09-02T00:55:06.867Z,1009.07
2016-09-02T00:56:06.893Z,1009.02
2016-09-02T00:57:06.920Z,1009.07
2016-09-02T00:58:06.945Z,1009.02
2016-09-02T00:59:06.970Z,1009.06
2016-09-02T01:00:06.995Z,1009.07
2016-09-02T01:01:07.022Z,1009.08
2016-09-02T01:02:07.046Z,1009.05
2016-09-02T01:03:07.080Z,1009.07
2016-09-02T01:04:07.096Z,1009.11
2016-09-02T01:05:07.122Z,1009.11
2016-09-02T01:06:07.147Z,1009.15
2016-09-02T01:07:07.171Z,1009.14
2016-09-02T01:08:07.198Z,1009.14
2016-09-02T01:09:07.225Z,1009.14
2016-09-02T01:10:07.250Z,1009.16
2016-09-02T01:11:07.273Z,1009.17
2016-09-02T01:12:07.301Z,1009.19
2016-09-02T01:13:07.325Z,1009.21
2016-09-02T01:14:07.352Z,1009.2
2016-09-02T01:15:07.375Z,1009.22
2016-09-02T01:16:07.399Z,1009.17
2016-09-02T01:17:07.425Z,1009.15
2016-09-02T01:18:07.451Z,1009.17
2016-09-02T01:19:07.477Z,1009.15
2016-09-02T01:20:07.592Z,1009.15
2016-09-02T01:21:07.527Z,1009.21
2016-09-02T01:22:07.555Z,1009.19
2016-09-02T01:23:07.590Z,1009.19
2016-09-02T01:24:07.602Z,1009.22
2016-09-02T01:25:07.750Z,1009.25
2016-09-02T01:26:07.653Z,1009.25
2016-09-02T01:27:07.679Z,1009.25
2016-09-02T01:28:07.703Z,1009.27
2016-09-02T01:29:07.729Z,1009.25
2016-09-02T01:30:07.757Z,1009.27
2016-09-02T01:31:07.779Z,1009.31
2016-09-02T01:32:07.810Z,1009.27
2016-09-02T01:33:07.829Z,1009.27
2016-09-02T01:34:07.855Z,1009.3
2016-09-02T01:35:07.880Z,1009.26
2016-09-02T01:36:07.905Z,1009.3
2016-09-02T01:37:07.929Z,1009.32
2016-09-02T01:38:07.957Z,1009.26
2016-09-02T01:39:07.981Z,1009.26
2016-09-02T01:40:08.006Z,1009.29
2016-09-02T01:41:08.031Z,1009.27
2016-09-02T01:42:08.057Z,1009.26
2016-09-02T01:43:08.081Z,1009.3
2016-09-02T01:44:08.105Z,1009.28
2016-09-02T01:45:08.131Z,1009.31
2016-09-02T01:46:08.156Z,1009.28
2016-09-02T01:47:08.181Z,1009.31
2016-09-02T01:48:08.206Z,1009.31
2016-09-02T01:49:08.245Z,1009.31
2016-09-02T01:50:08.257Z,1009.35
2016-09-02T01:51:08.281Z,1009.34
2016-09-02T01:52:08.307Z,1009.33
2016-09-02T01:53:08.331Z,1009.34
2016-09-02T01:54:08.357Z,1009.31
2016-09-02T01:55:08.387Z,1009.3
2016-09-02T01:56:08.407Z,1009.28
2016-09-02T01:57:08.432Z,1009.28
2016-09-02T01:58:08.457Z,1009.33
2016-09-02T01:59:08.484Z,1009.29
2016-09-02T02:00:08.508Z,1009.33
2016-09-02T02:01:08.531Z,1009.31
2016-09-02T02:02:08.576Z,1009.29
2016-09-02T02:03:08.582Z,1009.3
2016-09-02T02:04:08.606Z,1009.28
2016-09-02T02:05:08.630Z,1009.31
2016-09-02T02:06:08.658Z,1009.27
2016-09-02T02:07:08.683Z,1009.3
2016-09-02T02:08:08.706Z,1009.28
2016-09-02T02:09:08.732Z,1009.27
2016-09-02T02:10:08.758Z,1009.28
2016-09-02T02:11:08.780Z,1009.28
2016-09-02T02:12:08.806Z,1009.34
2016-09-02T02:13:08.830Z,1009.3
2016-09-02T02:14:08.855Z,1009.29
2016-09-02T02:15:08.879Z,1009.28
2016-09-02T02:16:08.905Z,1009.25
2016-09-02T02:17:08.929Z,1009.28
2016-09-02T02:18:08.954Z,1009.26
2016-09-02T02:19:08.978Z,1009.25
2016-09-02T02:20:09.003Z,1009.23
2016-09-02T02:21:09.028Z,1009.21
2016-09-02T02:22:09.054Z,1009.19
2016-09-02T02:23:09.080Z,1009.15
2016-09-02T02:24:09.102Z,1009.19
2016-09-02T02:25:09.128Z,1009.17
2016-09-02T02:26:09.152Z,1009.18
2016-09-02T02:27:09.177Z,1009.15
2016-09-02T02:28:09.201Z,1009.16
2016-09-02T02:29:09.227Z,1009.13
2016-09-02T02:30:09.251Z,1009.14
2016-09-02T02:31:09.275Z,1009.15
2016-09-02T02:32:09.302Z,1009.13
2016-09-02T02:33:09.325Z,1009.16
2016-09-02T02:34:09.351Z,1009.21
2016-09-02T02:35:09.374Z,1009.21
2016-09-02T02:36:09.399Z,1009.21
2016-09-02T02:37:09.431Z,1009.18
2016-09-02T02:38:09.448Z,1009.2
2016-09-02T02:39:09.473Z,1009.15
2016-09-02T02:40:09.498Z,1009.17
2016-09-02T02:41:09.521Z,1009.2
2016-09-02T02:42:09.547Z,1009.2
2016-09-02T02:43:09.571Z,1009.21
2016-09-02T02:44:09.595Z,1009.22
2016-09-02T02:45:09.620Z,1009.18
2016-09-02T02:46:09.645Z,1009.19
2016-09-02T02:47:09.671Z,1009.19
2016-09-02T02:48:09.693Z,1009.19
2016-09-02T02:49:09.717Z,1009.21
2016-09-02T02:50:09.744Z,1009.22
2016-09-02T02:51:09.768Z,1009.22
2016-09-02T02:52:09.792Z,1009.25
2016-09-02T02:53:09.818Z,1009.21
2016-09-02T02:54:09.841Z,1009.16
2016-09-02T02:55:09.866Z,1009.2
2016-09-02T02:56:09.890Z,1009.21
2016-09-02T02:57:09.915Z,1009.26
2016-09-02T02:58:09.939Z,1009.29
2016-09-02T02:59:09.965Z,1009.27
2016-09-02T03:00:09.988Z,1009.27
2016-09-02T03:01:10.013Z,1009.33
2016-09-02T03:02:10.037Z,1009.34
2016-09-02T03:03:10.061Z,1009.35
2016-09-02T03:04:10.086Z,1009.35
2016-09-02T03:05:10.110Z,1009.4
2016-09-02T03:06:10.135Z,1009.41
2016-09-02T03:07:10.158Z,1009.4
2016-09-02T03:08:10.184Z,1009.37
2016-09-02T03:09:10.207Z,1009.41
2016-09-02T03:10:10.232Z,1009.41
2016-09-02T03:11:10.257Z,1009.41
2016-09-02T03:12:10.280Z,1009.44
2016-09-02T03:13:10.307Z,1009.48
2016-09-02T03:14:10.328Z,1009.45
2016-09-02T03:15:10.352Z,1009.47
2016-09-02T03:16:10.379Z,1009.49
2016-09-02T03:17:10.406Z,1009.5
2016-09-02T03:18:10.426Z,1009.5
2016-09-02T03:19:10.451Z,1009.51
2016-09-02T03:20:10.476Z,1009.52
2016-09-02T03:21:10.499Z,1009.5
2016-09-02T03:22:10.524Z,1009.51
2016-09-02T03:23:10.549Z,1009.54
2016-09-02T03:24:10.573Z,1009.53
2016-09-02T03:25:10.597Z,1009.48
2016-09-02T03:26:10.624Z,1009.49
2016-09-02T03:27:10.647Z,1009.45
2016-09-02T03:28:10.676Z,1009.48
2016-09-02T03:29:10.696Z,1009.5
2016-09-02T03:30:10.720Z,1009.48
2016-09-02T03:31:10.742Z,1009.48
2016-09-02T03:32:10.767Z,1009.5
2016-09-02T03:33:10.794Z,1009.53
2016-09-02T03:34:10.817Z,1009.54
2016-09-02T03:35:10.841Z,1009.6
2016-09-02T03:36:10.864Z,1009.58
2016-09-02T03:37:10.888Z,1009.53
2016-09-02T03:38:10.913Z,1009.53
2016-09-02T03:39:10.940Z,1009.53
2016-09-02T03:40:10.963Z,1009.52
2016-09-02T03:41:10.986Z,1009.56
2016-09-02T03:42:11.010Z,1009.52
2016-09-02T03:43:11.034Z,1009.52
2016-09-02T03:44:11.058Z,1009.51
2016-09-02T03:45:11.082Z,1009.53
2016-09-02T03:46:11.107Z,1009.53
2016-09-02T03:47:11.129Z,1009.52
2016-09-02T03:48:11.155Z,1009.52
2016-09-02T03:49:11.179Z,1009.54
2016-09-02T03:50:11.203Z,1009.52
2016-09-02T03:51:11.226Z,1009.5
2016-09-02T03:52:11.250Z,1009.49
2016-09-02T03:53:11.275Z,1009.5
2016-09-02T03:54:11.298Z,1009.49
2016-09-02T03:55:11.323Z,1009.51
2016-09-02T03:56:11.347Z,1009.52
2016-09-02T03:57:11.371Z,1009.51
2016-09-02T03:58:11.394Z,1009.54
2016-09-02T03:59:11.420Z,1009.51
2016-09-02T04:00:11.442Z,1009.54
2016-09-02T04:01:11.466Z,1009.55
2016-09-02T04:02:11.491Z,1009.55
2016-09-02T04:03:11.514Z,1009.53
2016-09-02T04:04:11.539Z,1009.54
2016-09-02T04:05:11.587Z,1009.57
2016-09-02T04:06:11.587Z,1009.59
2016-09-02T04:07:11.628Z,1009.58
2016-09-02T04:08:11.635Z,1009.57
2016-09-02T04:09:11.779Z,1009.61
2016-09-02T04:10:11.788Z,1009.57
2016-09-02T04:11:11.796Z,1009.53
2016-09-02T04:12:11.830Z,1009.51
2016-09-02T04:13:11.838Z,1009.51
2016-09-02T04:14:11.836Z,1009.49
2016-09-02T04:15:11.846Z,1009.5
2016-09-02T04:16:11.854Z,1009.56
2016-09-02T04:17:11.864Z,1009.48
2016-09-02T04:18:11.874Z,1009.5
2016-09-02T04:19:11.931Z,1009.51
2016-09-02T04:20:11.942Z,1009.52
2016-09-02T04:21:11.949Z,1009.6
2016-09-02T04:22:11.969Z,1009.62
2016-09-02T04:23:12.074Z,1009.62
2016-09-02T04:24:12.108Z,1009.61
2016-09-02T04:25:12.114Z,1009.64
2016-09-02T04:26:12.124Z,1009.62
2016-09-02T04:27:12.131Z,1009.63
2016-09-02T04:28:12.134Z,1009.66
2016-09-02T04:29:12.140Z,1009.62
2016-09-02T04:30:12.158Z,1009.65
2016-09-02T04:31:12.183Z,1009.65
2016-09-02T04:32:12.207Z,1009.65
2016-09-02T04:33:12.231Z,1009.64
2016-09-02T04:34:12.255Z,1009.66
2016-09-02T04:35:12.278Z,1009.67
2016-09-02T04:36:12.302Z,1009.66
2016-09-02T04:37:12.327Z,1009.68
2016-09-02T04:38:12.348Z,1009.68
2016-09-02T04:39:12.374Z,1009.64
2016-09-02T04:40:12.397Z,1009.65
2016-09-02T04:41:12.421Z,1009.65
2016-09-02T04:42:12.446Z,1009.66
2016-09-02T04:43:12.469Z,1009.69
2016-09-02T04:44:12.494Z,1009.73
2016-09-02T04:45:12.555Z,1009.78
2016-09-02T04:46:12.539Z,1009.74
2016-09-02T04:47:12.564Z,1009.78
2016-09-02T04:48:12.588Z,1009.73
2016-09-02T04:49:12.611Z,1009.76
2016-09-02T04:50:12.635Z,1009.75
2016-09-02T04:51:12.659Z,1009.7
2016-09-02T04:52:12.682Z,1009.74
2016-09-02T04:53:12.708Z,1009.74
2016-09-02T04:54:12.730Z,1009.74
2016-09-02T04:55:12.753Z,1009.73
2016-09-02T04:56:12.776Z,1009.73
2016-09-02T04:57:12.801Z,1009.77
2016-09-02T04:58:12.826Z,1009.77
2016-09-02T04:59:12.849Z,1009.82
2016-09-02T05:00:12.870Z,1009.79
2016-09-02T05:01:12.895Z,1009.81
2016-09-02T05:02:12.920Z,1009.81
2016-09-02T05:03:12.944Z,1009.81
2016-09-02T05:04:12.970Z,1009.82
2016-09-02T05:05:12.991Z,1009.84
2016-09-02T05:06:13.017Z,1009.86
2016-09-02T05:07:13.038Z,1009.84
2016-09-02T05:08:13.061Z,1009.83
2016-09-02T05:09:13.086Z,1009.83
2016-09-02T05:10:13.115Z,1009.79
2016-09-02T05:11:13.133Z,1009.8
2016-09-02T05:12:13.158Z,1009.8
2016-09-02T05:13:13.180Z,1009.79
2016-09-02T05:14:13.203Z,1009.81
2016-09-02T05:15:13.231Z,1009.77
2016-09-02T05:16:13.250Z,1009.8
2016-09-02T05:17:13.276Z,1009.78
2016-09-02T05:18:13.298Z,1009.79
2016-09-02T05:19:13.321Z,1009.81
2016-09-02T05:20:13.349Z,1009.79
2016-09-02T05:21:13.370Z,1009.81
2016-09-02T05:22:13.393Z,1009.78
2016-09-02T05:23:13.417Z,1009.77
2016-09-02T05:24:13.441Z,1009.77
2016-09-02T05:25:13.464Z,1009.78
2016-09-02T05:26:13.487Z,1009.75
2016-09-02T05:27:13.511Z,1009.76
2016-09-02T05:28:13.535Z,1009.77
2016-09-02T05:29:13.559Z,1009.75
2016-09-02T05:30:13.581Z,1009.78
2016-09-02T05:31:13.605Z,1009.76
2016-09-02T05:32:13.630Z,1009.77
2016-09-02T05:33:13.652Z,1009.84
2016-09-02T05:34:13.676Z,1009.81
2016-09-02T05:35:13.699Z,1009.86
2016-09-02T05:36:13.722Z,1009.87
2016-09-02T05:37:13.749Z,1009.88
2016-09-02T05:38:13.771Z,1009.9
2016-09-02T05:39:13.794Z,1009.87
2016-09-02T05:40:13.818Z,1009.86
2016-09-02T05:41:13.843Z,1009.88
2016-09-02T05:42:13.866Z,1009.9
2016-09-02T05:43:13.888Z,1009.86
2016-09-02T05:44:13.912Z,1009.88
2016-09-02T05:45:13.937Z,1009.82
2016-09-02T05:46:13.960Z,1009.81
2016-09-02T05:47:13.982Z,1009.8
2016-09-02T05:48:14.007Z,1009.82
2016-09-02T05:49:14.031Z,1009.86
2016-09-02T05:50:14.055Z,1009.83
2016-09-02T05:51:14.077Z,1009.83
2016-09-02T05:52:14.107Z,1009.82
2016-09-02T05:53:14.125Z,1009.83
2016-09-02T05:54:14.148Z,1009.83
2016-09-02T05:55:14.436Z,1009.81
2016-09-02T05:56:14.196Z,1009.78
2016-09-02T05:57:14.219Z,1009.83
2016-09-02T05:58:14.248Z,1009.82
2016-09-02T05:59:14.265Z,1009.81
2016-09-02T06:00:14.290Z,1009.79
2016-09-02T06:01:14.314Z,1009.81
2016-09-02T06:02:14.337Z,1009.82
2016-09-02T06:03:14.367Z,1009.82
2016-09-02T06:04:14.384Z,1009.8
2016-09-02T06:05:14.410Z,1009.84
2016-09-02T06:06:14.434Z,1009.85
2016-09-02T06:07:14.456Z,1009.8
2016-09-02T06:08:14.479Z,1009.84
2016-09-02T06:09:14.502Z,1009.81
2016-09-02T06:10:14.527Z,1009.85
2016-09-02T06:11:14.553Z,1009.85
2016-09-02T06:12:14.574Z,1009.82
2016-09-02T06:13:14.598Z,1009.84
2016-09-02T06:14:14.620Z,1009.8
2016-09-02T06:15:14.864Z,1009.81
2016-09-02T06:16:14.669Z,1009.79
2016-09-02T06:17:14.693Z,1009.81
2016-09-02T06:18:14.716Z,1009.81
2016-09-02T06:19:14.739Z,1009.76
2016-09-02T06:20:14.763Z,1009.79
2016-09-02T06:21:14.791Z,1009.8
2016-09-02T06:22:14.809Z,1009.79
2016-09-02T06:23:14.879Z,1009.77
2016-09-02T06:24:14.887Z,1009.76
2016-09-02T06:25:14.882Z,1009.73
2016-09-02T06:26:14.906Z,1009.76
2016-09-02T06:27:14.928Z,1009.71
2016-09-02T06:28:14.952Z,1009.71
2016-09-02T06:29:14.977Z,1009.74
2016-09-02T06:30:15.000Z,1009.72
2016-09-02T06:31:15.024Z,1009.72
2016-09-02T06:32:15.049Z,1009.75
2016-09-02T06:33:15.073Z,1009.72
2016-09-02T06:34:15.100Z,1009.73
2016-09-02T06:35:15.120Z,1009.72
2016-09-02T06:36:15.143Z,1009.71
2016-09-02T06:37:15.245Z,1009.72
2016-09-02T06:38:15.191Z,1009.72
2016-09-02T06:39:15.216Z,1009.73
2016-09-02T06:40:15.241Z,1009.71
2016-09-02T06:41:15.264Z,1009.73
2016-09-02T06:42:15.287Z,1009.72
2016-09-02T06:43:15.311Z,1009.7
2016-09-02T06:44:15.336Z,1009.7
2016-09-02T06:45:15.363Z,1009.67
2016-09-02T06:46:15.382Z,1009.64
2016-09-02T06:47:15.407Z,1009.65
2016-09-02T06:48:15.431Z,1009.66
2016-09-02T06:49:15.455Z,1009.67
2016-09-02T06:50:15.480Z,1009.66
2016-09-02T06:51:15.503Z,1009.63
2016-09-02T06:52:15.527Z,1009.63
2016-09-02T06:53:15.551Z,1009.67
2016-09-02T06:54:15.575Z,1009.64
2016-09-02T06:55:15.598Z,1009.68
2016-09-02T06:56:15.623Z,1009.71
2016-09-02T06:57:15.647Z,1009.7
2016-09-02T06:58:15.671Z,1009.71
2016-09-02T06:59:15.696Z,1009.73
2016-09-02T07:00:15.718Z,1009.77
2016-09-02T07:01:15.743Z,1009.75
2016-09-02T07:02:15.767Z,1009.74
2016-09-02T07:03:15.792Z,1009.72
2016-09-02T07:04:15.815Z,1009.74
2016-09-02T07:05:15.840Z,1009.73
2016-09-02T07:06:15.864Z,1009.72
2016-09-02T07:07:15.889Z,1009.72
2016-09-02T07:08:15.912Z,1009.76
2016-09-02T07:09:15.936Z,1009.73
2016-09-02T07:10:15.961Z,1009.72
2016-09-02T07:11:15.984Z,1009.67
2016-09-02T07:12:16.009Z,1009.68
2016-09-02T07:13:16.033Z,1009.72
2016-09-02T07:14:16.057Z,1009.74
2016-09-02T07:15:16.082Z,1009.76
2016-09-02T07:16:16.106Z,1009.76
2016-09-02T07:17:16.129Z,1009.69
2016-09-02T07:18:16.155Z,1009.74
2016-09-02T07:19:16.179Z,1009.76
2016-09-02T07:20:16.206Z,1009.75
2016-09-02T07:21:16.228Z,1009.75
2016-09-02T07:22:16.251Z,1009.77
2016-09-02T07:23:16.278Z,1009.78
2016-09-02T07:24:16.300Z,1009.78
2016-09-02T07:25:16.325Z,1009.79
2016-09-02T07:26:16.348Z,1009.8
2016-09-02T07:27:16.373Z,1009.71
2016-09-02T07:28:16.398Z,1009.73
2016-09-02T07:29:16.423Z,1009.72
2016-09-02T07:30:16.452Z,1009.73
2016-09-02T07:31:16.471Z,1009.72
2016-09-02T07:32:16.496Z,1009.71
2016-09-02T07:33:16.519Z,1009.72
2016-09-02T07:34:16.544Z,1009.73
2016-09-02T07:35:16.569Z,1009.73
2016-09-02T07:36:16.594Z,1009.75
2016-09-02T07:37:16.619Z,1009.75
2016-09-02T07:38:16.645Z,1009.76
2016-09-02T07:39:16.667Z,1009.78
2016-09-02T07:40:16.692Z,1009.79
2016-09-02T07:41:16.717Z,1009.84
2016-09-02T07:42:16.740Z,1009.83
2016-09-02T07:43:16.768Z,1009.83
2016-09-02T07:44:16.790Z,1009.83
2016-09-02T07:45:16.816Z,1009.83
2016-09-02T07:46:16.840Z,1009.84
2016-09-02T07:47:16.865Z,1009.84
2016-09-02T07:48:16.890Z,1009.79
2016-09-02T07:49:16.915Z,1009.77
2016-09-02T07:50:16.941Z,1009.78
2016-09-02T07:51:16.965Z,1009.8
2016-09-02T07:52:16.988Z,1009.8
2016-09-02T07:53:17.013Z,1009.76
2016-09-02T07:54:17.039Z,1009.78
2016-09-02T07:55:17.064Z,1009.78
2016-09-02T07:56:17.088Z,1009.78
2016-09-02T07:57:17.114Z,1009.79
2016-09-02T07:58:17.138Z,1009.77
2016-09-02T07:59:17.163Z,1009.77
2016-09-02T08:00:17.421Z,1009.76
2016-09-02T08:01:17.217Z,1009.74
2016-09-02T08:02:17.240Z,1009.76
2016-09-02T08:03:17.262Z,1009.79
2016-09-02T08:04:17.289Z,1009.84
2016-09-02T08:05:17.313Z,1009.81
2016-09-02T08:06:17.338Z,1009.82
2016-09-02T08:07:17.364Z,1009.83
2016-09-02T08:08:17.388Z,1009.86
2016-09-02T08:09:17.414Z,1009.82
2016-09-02T08:10:17.438Z,1009.85
2016-09-02T08:11:17.496Z,1009.86
2016-09-02T08:12:17.489Z,1009.88
2016-09-02T08:13:17.522Z,1009.85
2016-09-02T08:14:17.567Z,1009.93
2016-09-02T08:15:17.566Z,1009.88
2016-09-02T08:16:17.592Z,1009.89
2016-09-02T08:17:17.620Z,1009.88
2016-09-02T08:18:17.641Z,1009.9
2016-09-02T08:19:17.666Z,1009.93
2016-09-02T08:20:17.691Z,1009.91
2016-09-02T08:21:17.717Z,1009.91
2016-09-02T08:22:17.741Z,1009.86
2016-09-02T08:23:17.767Z,1009.88
2016-09-02T08:24:17.792Z,1009.82
2016-09-02T08:25:17.818Z,1009.83
2016-09-02T08:26:17.843Z,1009.84
2016-09-02T08:27:17.869Z,1009.8
2016-09-02T08:28:17.894Z,1009.78
2016-09-02T08:29:17.921Z,1009.77
2016-09-02T08:30:17.951Z,1009.7
2016-09-02T08:31:17.971Z,1009.72
2016-09-02T08:32:17.995Z,1009.72
2016-09-02T08:33:18.021Z,1009.73
2016-09-02T08:34:18.046Z,1009.75
2016-09-02T08:35:18.095Z,1009.74
2016-09-02T08:36:18.097Z,1009.77
2016-09-02T08:37:18.174Z,1009.75
2016-09-02T08:38:18.149Z,1009.76
2016-09-02T08:39:18.175Z,1009.75
2016-09-02T08:40:18.200Z,1009.79
2016-09-02T08:41:18.231Z,1009.8
2016-09-02T08:42:18.252Z,1009.78
2016-09-02T08:43:18.277Z,1009.8
2016-09-02T08:44:18.302Z,1009.78
2016-09-02T08:45:18.329Z,1009.76
2016-09-02T08:46:18.353Z,1009.79
2016-09-02T08:47:18.379Z,1009.75
2016-09-02T08:48:18.405Z,1009.78
2016-09-02T08:49:18.434Z,1009.77
2016-09-02T08:50:18.457Z,1009.82
2016-09-02T08:51:18.484Z,1009.83
2016-09-02T08:52:18.509Z,1009.83
2016-09-02T08:53:18.537Z,1009.84
2016-09-02T08:54:18.560Z,1009.82
2016-09-02T08:55:18.586Z,1009.81
2016-09-02T08:56:18.612Z,1009.83
2016-09-02T08:57:18.638Z,1009.82
2016-09-02T08:58:18.665Z,1009.81
2016-09-02T08:59:18.689Z,1009.79
2016-09-02T09:00:18.716Z,1009.78
2016-09-02T09:01:18.742Z,1009.77
2016-09-02T09:02:18.768Z,1009.79
2016-09-02T09:03:18.806Z,1009.75
2016-09-02T09:04:18.821Z,1009.74
2016-09-02T09:05:18.849Z,1009.73
2016-09-02T09:06:18.873Z,1009.71
2016-09-02T09:07:18.899Z,1009.69
2016-09-02T09:08:18.923Z,1009.65
2016-09-02T09:09:18.950Z,1009.67
2016-09-02T09:10:19.148Z,1009.69
2016-09-02T09:11:19.004Z,1009.66
2016-09-02T09:12:19.033Z,1009.62
2016-09-02T09:13:19.057Z,1009.6
2016-09-02T09:14:19.081Z,1009.66
2016-09-02T09:15:19.109Z,1009.63
2016-09-02T09:16:19.133Z,1009.62
2016-09-02T09:17:19.161Z,1009.65
2016-09-02T09:18:19.188Z,1009.61
2016-09-02T09:19:19.214Z,1009.62
2016-09-02T09:20:19.241Z,1009.63
2016-09-02T09:21:19.267Z,1009.6
2016-09-02T09:22:19.294Z,1009.61
2016-09-02T09:23:19.319Z,1009.65
2016-09-02T09:24:19.346Z,1009.59
2016-09-02T09:25:19.373Z,1009.61
2016-09-02T09:26:19.400Z,1009.54
2016-09-02T09:27:19.427Z,1009.53
2016-09-02T09:28:19.453Z,1009.57
2016-09-02T09:29:19.479Z,1009.53
2016-09-02T09:30:19.506Z,1009.57
2016-09-02T09:31:19.534Z,1009.55
2016-09-02T09:32:19.560Z,1009.55
2016-09-02T09:33:19.588Z,1009.55
2016-09-02T09:34:19.612Z,1009.53
2016-09-02T09:35:19.640Z,1009.52
2016-09-02T09:36:19.668Z,1009.51
2016-09-02T09:37:19.845Z,1009.5
2016-09-02T09:38:19.721Z,1009.49
2016-09-02T09:39:19.749Z,1009.45
2016-09-02T09:40:19.776Z,1009.48
2016-09-02T09:41:19.811Z,1009.39
2016-09-02T09:42:19.829Z,1009.38
2016-09-02T09:43:19.858Z,1009.36
2016-09-02T09:44:19.885Z,1009.38
2016-09-02T09:45:19.910Z,1009.33
2016-09-02T09:46:19.940Z,1009.33
2016-09-02T09:47:19.966Z,1009.32
2016-09-02T09:48:19.994Z,1009.29
2016-09-02T09:49:20.037Z,1009.23
2016-09-02T09:50:20.049Z,1009.24
2016-09-02T09:51:20.076Z,1009.24
2016-09-02T09:52:20.104Z,1009.23
2016-09-02T09:53:20.131Z,1009.2
2016-09-02T09:54:20.159Z,1009.19
2016-09-02T09:55:20.189Z,1009.24
2016-09-02T09:56:20.213Z,1009.2
2016-09-02T09:57:20.242Z,1009.21
2016-09-02T09:58:20.270Z,1009.24
2016-09-02T09:59:20.296Z,1009.25
2016-09-02T10:00:20.436Z,1009.26
2016-09-02T10:01:20.457Z,1009.25
2016-09-02T10:02:20.489Z,1009.22
2016-09-02T10:03:20.488Z,1009.26
2016-09-02T10:04:20.533Z,1009.23
2016-09-02T10:05:20.565Z,1009.24
2016-09-02T10:06:20.575Z,1009.23
2016-09-02T10:07:20.573Z,1009.19
2016-09-02T10:08:20.587Z,1009.12
2016-09-02T10:09:20.590Z,1009.14
2016-09-02T10:10:20.602Z,1009.16
2016-09-02T10:11:20.727Z,1009.07
2016-09-02T10:12:20.748Z,1009.08
2016-09-02T10:13:20.756Z,1009.07
2016-09-02T10:14:20.765Z,1009.08
2016-09-02T10:15:20.915Z,1009.08
2016-09-02T10:16:20.783Z,1009.07
2016-09-02T10:17:20.803Z,1009.09
2016-09-02T10:18:20.829Z,1009.03
2016-09-02T10:19:20.858Z,1009.02
2016-09-02T10:20:20.886Z,1009.03
2016-09-02T10:21:20.914Z,1009.02
2016-09-02T10:22:20.942Z,1008.95
2016-09-02T10:23:20.983Z,1008.99
2016-09-02T10:24:21.000Z,1008.93
2016-09-02T10:25:21.030Z,1008.91
2016-09-02T10:26:21.057Z,1008.92
2016-09-02T10:27:21.085Z,1008.89
2016-09-02T10:28:21.115Z,1008.92
2016-09-02T10:29:21.144Z,1008.92
2016-09-02T10:30:21.172Z,1008.86
2016-09-02T10:31:21.200Z,1008.84
2016-09-02T10:32:21.229Z,1008.86
2016-09-02T10:33:21.257Z,1008.86
2016-09-02T10:34:21.288Z,1008.81
2016-09-02T10:35:21.317Z,1008.78
2016-09-02T10:36:21.344Z,1008.81
2016-09-02T10:37:21.424Z,1008.82
2016-09-02T10:38:21.403Z,1008.8
2016-09-02T10:39:21.433Z,1008.83
2016-09-02T10:40:21.462Z,1008.84
2016-09-02T10:41:21.490Z,1008.81
2016-09-02T10:42:21.522Z,1008.82
2016-09-02T10:43:21.550Z,1008.82
2016-09-02T10:44:21.579Z,1008.83
2016-09-02T10:45:21.608Z,1008.81
2016-09-02T10:46:21.638Z,1008.85
2016-09-02T10:47:21.668Z,1008.85
2016-09-02T10:48:21.696Z,1008.83
2016-09-02T10:49:21.727Z,1008.85
2016-09-02T10:50:21.760Z,1008.78
2016-09-02T10:51:21.789Z,1008.83
2016-09-02T10:52:21.814Z,1008.8
2016-09-02T10:53:21.844Z,1008.82
2016-09-02T10:54:21.872Z,1008.84
2016-09-02T10:55:21.903Z,1008.83
2016-09-02T10:56:21.933Z,1008.84
2016-09-02T10:57:21.962Z,1008.8
2016-09-02T10:58:21.992Z,1008.81
2016-09-02T10:59:22.022Z,1008.82
2016-09-02T11:00:22.053Z,1008.79
2016-09-02T11:01:22.082Z,1008.76
2016-09-02T11:02:22.112Z,1008.76
2016-09-02T11:03:22.145Z,1008.73
2016-09-02T11:04:22.173Z,1008.74
2016-09-02T11:05:22.202Z,1008.75
2016-09-02T11:06:22.232Z,1008.73
2016-09-02T11:07:22.263Z,1008.8
2016-09-02T11:08:22.293Z,1008.73
2016-09-02T11:09:22.323Z,1008.72
2016-09-02T11:10:22.355Z,1008.72
2016-09-02T11:11:22.385Z,1008.74
2016-09-02T11:12:22.416Z,1008.74
2016-09-02T11:13:22.445Z,1008.68
2016-09-02T11:14:22.480Z,1008.7
2016-09-02T11:15:22.509Z,1008.67
2016-09-02T11:16:22.536Z,1008.68
2016-09-02T11:17:22.567Z,1008.68
2016-09-02T11:18:22.598Z,1008.72
2016-09-02T11:19:22.630Z,1008.66
2016-09-02T11:20:22.660Z,1008.64
2016-09-02T11:21:22.696Z,1008.66
2016-09-02T11:22:22.722Z,1008.63
2016-09-02T11:23:22.758Z,1008.62
2016-09-02T11:24:22.785Z,1008.63
2016-09-02T11:25:23.156Z,1008.64
2016-09-02T11:26:22.847Z,1008.6
2016-09-02T11:27:22.877Z,1008.63
2016-09-02T11:28:22.908Z,1008.63
2016-09-02T11:29:22.939Z,1008.64
2016-09-02T11:30:22.972Z,1008.62
2016-09-02T11:31:23.003Z,1008.58
2016-09-02T11:32:23.033Z,1008.6
2016-09-02T11:33:23.065Z,1008.59
2016-09-02T11:34:23.095Z,1008.57
2016-09-02T11:35:23.126Z,1008.53
2016-09-02T11:36:23.160Z,1008.59
2016-09-02T11:37:23.240Z,1008.53
2016-09-02T11:38:23.219Z,1008.53
2016-09-02T11:39:23.252Z,1008.52
2016-09-02T11:40:23.284Z,1008.49
2016-09-02T11:41:23.316Z,1008.53
2016-09-02T11:42:23.348Z,1008.52
2016-09-02T11:43:23.380Z,1008.54
2016-09-02T11:44:23.411Z,1008.54
2016-09-02T11:45:23.441Z,1008.56
2016-09-02T11:46:23.472Z,1008.49
2016-09-02T11:47:23.505Z,1008.51
2016-09-02T11:48:23.535Z,1008.53
2016-09-02T11:49:23.568Z,1008.51
2016-09-02T11:50:23.599Z,1008.49
2016-09-02T11:51:23.631Z,1008.49
2016-09-02T11:52:23.665Z,1008.39
2016-09-02T11:53:23.700Z,1008.37
2016-09-02T11:54:23.725Z,1008.37
2016-09-02T11:55:23.759Z,1008.35
2016-09-02T11:56:23.792Z,1008.33
2016-09-02T11:57:23.824Z,1008.27
2016-09-02T11:58:23.854Z,1008.24
2016-09-02T11:59:23.887Z,1008.27
2016-09-02T12:00:23.919Z,1008.25
2016-09-02T12:01:23.950Z,1008.23
2016-09-02T12:02:23.983Z,1008.23
2016-09-02T12:03:24.015Z,1008.18
2016-09-02T12:04:24.048Z,1008.19
2016-09-02T12:05:24.079Z,1008.18
2016-09-02T12:06:24.111Z,1008.16
2016-09-02T12:07:24.143Z,1008.1